createdAt,value
2018-12-05T00:02:28.015Z,13.10
2018-12-05T00:04:56.629Z,14.20
2018-12-05T00:07:25.187Z,17.87
2018-12-05T00:09:53.834Z,13.85
2018-12-05T00:12:22.400Z,8.43
2018-12-05T00:14:51.001Z,17.48
2018-12-05T00:17:19.675Z,29.12
2018-12-05T00:19:48.288Z,22.17
2018-12-05T00:22:16.877Z,18.07
2018-12-05T00:24:45.467Z,11.38
2018-12-05T00:27:14.155Z,14.95
2018-12-05T00:29:42.765Z,11.60
2018-12-05T00:32:11.323Z,11.65
2018-12-05T00:34:40.370Z,14.40
2018-12-05T00:37:08.954Z,7.90
2018-12-05T00:39:37.529Z,10.85
2018-12-05T00:42:06.134Z,25.60
2018-12-05T00:44:34.791Z,17.17
2018-12-05T00:47:03.355Z,20.85
2018-12-05T00:49:31.915Z,14.98
2018-12-05T00:52:00.501Z,9.63
2018-12-05T00:54:29.095Z,18.25
2018-12-05T00:56:57.668Z,15.53
2018-12-05T00:59:26.228Z,16.35
2018-12-05T01:01:54.800Z,15.65
2018-12-05T01:04:23.327Z,16.23
2018-12-05T01:06:51.897Z,10.93
2018-12-05T01:09:20.606Z,11.30
2018-12-05T01:11:49.155Z,19.37
2018-12-05T01:14:18.355Z,13.70
2018-12-05T01:16:47.103Z,16.35
2018-12-05T01:19:15.714Z,17.82
2018-12-05T01:21:44.399Z,27.20
2018-12-05T01:24:12.976Z,15.08
2018-12-05T01:26:41.631Z,19.30
2018-12-05T01:29:10.330Z,15.23
2018-12-05T01:31:38.972Z,27.05
2018-12-05T01:34:07.535Z,16.52
2018-12-05T01:36:36.128Z,16.45
2018-12-05T01:39:07.616Z,18.67
2018-12-05T01:41:36.204Z,16.70
2018-12-05T01:44:04.833Z,16.27
2018-12-05T01:46:33.404Z,23.70
2018-12-05T01:49:02.077Z,13.03
2018-12-05T01:51:30.645Z,24.40
2018-12-05T01:53:59.209Z,18.90
2018-12-05T01:56:27.813Z,13.58
2018-12-05T01:58:56.384Z,13.55
2018-12-05T02:01:24.943Z,15.15
2018-12-05T02:03:53.529Z,19.07
2018-12-05T02:06:22.094Z,14.13
2018-12-05T02:08:50.643Z,12.25
2018-12-05T02:11:19.224Z,9.43
2018-12-05T02:13:47.807Z,15.80
2018-12-05T02:16:16.370Z,13.28
2018-12-05T02:18:44.954Z,8.88
2018-12-05T02:21:13.545Z,18.75
2018-12-05T02:23:42.127Z,22.37
2018-12-05T02:26:10.730Z,13.40
2018-12-05T02:28:39.302Z,18.92
2018-12-05T02:31:07.903Z,21.68
2018-12-05T02:33:38.568Z,17.65
2018-12-05T02:36:07.168Z,16.75
2018-12-05T02:38:35.732Z,13.98
2018-12-05T02:41:04.316Z,20.62
2018-12-05T02:43:32.896Z,16.17
2018-12-05T02:46:01.478Z,17.95
2018-12-05T02:48:30.041Z,16.27
2018-12-05T02:50:58.630Z,12.95
2018-12-05T02:53:27.186Z,8.55
2018-12-05T02:55:55.801Z,12.75
2018-12-05T02:58:24.404Z,10.93
2018-12-05T03:00:52.939Z,12.30
2018-12-05T03:03:21.512Z,17.45
2018-12-05T03:05:50.049Z,13.03
2018-12-05T03:08:18.601Z,13.72
2018-12-05T03:10:47.173Z,16.37
2018-12-05T03:13:15.807Z,21.10
2018-12-05T03:15:44.362Z,16.17
2018-12-05T03:18:12.950Z,13.40
2018-12-05T03:20:41.544Z,15.88
2018-12-05T03:23:10.109Z,15.53
2018-12-05T03:25:38.703Z,11.38
2018-12-05T03:28:07.313Z,15.08
2018-12-05T03:30:35.910Z,35.60
2018-12-05T03:33:04.605Z,16.20
2018-12-05T03:35:39.043Z,19.62
2018-12-05T03:38:07.919Z,12.03
2018-12-05T03:40:36.548Z,14.35
2018-12-05T03:43:05.220Z,8.73
2018-12-05T03:45:33.790Z,15.63
2018-12-05T03:48:02.403Z,15.48
2018-12-05T03:50:30.922Z,21.23
2018-12-05T03:52:59.527Z,16.10
2018-12-05T03:55:28.164Z,10.20
2018-12-05T03:57:56.717Z,13.58
2018-12-05T04:00:25.332Z,30.02
2018-12-05T04:02:53.902Z,20.43
2018-12-05T04:05:22.948Z,19.20
2018-12-05T04:07:51.556Z,19.12
2018-12-05T04:10:20.154Z,18.35
2018-12-05T04:12:48.730Z,13.60
2018-12-05T04:15:17.405Z,12.15
2018-12-05T04:17:45.939Z,13.45
2018-12-05T04:20:14.561Z,11.22
2018-12-05T04:22:46.069Z,12.50
2018-12-05T04:25:17.527Z,13.72
2018-12-05T04:27:46.206Z,10.55
2018-12-05T04:30:14.857Z,16.93
2018-12-05T04:32:43.394Z,15.50
2018-12-05T04:35:11.925Z,10.38
2018-12-05T04:37:40.480Z,12.15
2018-12-05T04:40:09.176Z,13.58
2018-12-05T04:42:37.842Z,7.58
2018-12-05T04:45:06.511Z,12.68
2018-12-05T04:47:35.125Z,15.48
2018-12-05T04:50:04.045Z,13.78
2018-12-05T04:52:32.714Z,12.00
2018-12-05T04:55:01.243Z,15.08
2018-12-05T04:57:29.772Z,9.48
2018-12-05T04:59:58.365Z,21.33
2018-12-05T05:02:27.108Z,22.05
2018-12-05T05:04:55.636Z,7.33
2018-12-05T05:07:24.174Z,11.83
2018-12-05T05:09:52.791Z,17.80
2018-12-05T05:12:21.328Z,17.12
2018-12-05T05:14:49.887Z,18.15
2018-12-05T05:17:18.427Z,19.20
2018-12-05T05:19:47.033Z,13.28
2018-12-05T05:22:16.047Z,9.65
2018-12-05T05:24:44.636Z,10.82
2018-12-05T05:27:14.393Z,9.35
2018-12-05T05:29:43.008Z,12.40
2018-12-05T05:32:11.622Z,10.98
2018-12-05T05:34:40.289Z,18.25
2018-12-05T05:37:08.846Z,5.08
2018-12-05T05:39:37.451Z,10.78
2018-12-05T05:42:06.051Z,19.32
2018-12-05T05:44:35.104Z,14.23
2018-12-05T05:47:03.652Z,14.53
2018-12-05T05:49:32.215Z,10.75
2018-12-05T05:52:00.793Z,15.35
2018-12-05T05:54:29.341Z,15.18
2018-12-05T05:56:57.893Z,11.10
2018-12-05T05:59:26.438Z,11.53
2018-12-05T06:01:54.984Z,14.78
2018-12-05T06:04:23.536Z,11.03
2018-12-05T06:06:52.097Z,13.62
2018-12-05T06:09:20.679Z,30.60
2018-12-05T06:11:49.324Z,33.40
2018-12-05T06:14:17.891Z,38.33
2018-12-05T06:16:46.439Z,39.25
2018-12-05T06:19:15.032Z,37.50
2018-12-05T06:21:43.586Z,31.73
2018-12-05T06:24:12.189Z,27.65
2018-12-05T06:26:40.838Z,25.60
2018-12-05T06:29:09.404Z,41.83
2018-12-05T06:31:37.960Z,34.98
2018-12-05T06:34:06.531Z,29.70
2018-12-05T06:36:35.102Z,31.55
2018-12-05T06:39:04.980Z,21.02
2018-12-05T06:41:33.566Z,24.63
2018-12-05T06:44:02.115Z,27.50
2018-12-05T06:46:30.648Z,19.70
2018-12-05T06:48:59.211Z,29.15
2018-12-05T06:51:27.745Z,22.77
2018-12-05T06:53:56.279Z,33.00
2018-12-05T06:56:24.842Z,24.77
2018-12-05T06:58:53.384Z,16.67
2018-12-05T07:01:21.980Z,66.95
2018-12-05T07:03:50.518Z,194.40
2018-12-05T07:06:19.058Z,255.20
2018-12-05T07:08:47.613Z,40.28
2018-12-05T07:11:16.184Z,24.65
2018-12-05T07:13:44.780Z,22.85
2018-12-05T07:16:14.464Z,29.82
2018-12-05T07:18:43.031Z,30.52
2018-12-05T07:21:11.861Z,34.13
2018-12-05T07:23:40.507Z,27.25
2018-12-05T07:26:09.083Z,28.73
2018-12-05T07:28:42.672Z,46.48
2018-12-05T07:31:11.300Z,32.78
2018-12-05T07:33:39.967Z,35.20
2018-12-05T07:36:08.528Z,22.52
2018-12-05T07:38:37.093Z,26.60
2018-12-05T07:41:05.647Z,28.95
2018-12-05T07:43:34.217Z,25.57
2018-12-05T07:46:02.814Z,13.03
2018-12-05T07:48:31.366Z,13.80
2018-12-05T07:50:59.934Z,11.88
2018-12-05T07:53:28.498Z,12.25
2018-12-05T07:55:57.055Z,28.35
2018-12-05T07:58:25.669Z,16.67
2018-12-05T08:00:54.204Z,29.55
2018-12-05T08:03:22.737Z,27.73
2018-12-05T08:05:51.310Z,16.67
2018-12-05T08:08:19.878Z,14.45
2018-12-05T08:10:48.419Z,27.77
2018-12-05T08:13:16.985Z,28.95
2018-12-05T08:15:45.573Z,17.05
2018-12-05T08:18:14.185Z,12.37
2018-12-05T08:20:42.696Z,18.15
2018-12-05T08:23:11.225Z,27.48
2018-12-05T08:25:40.838Z,17.80
2018-12-05T08:28:09.847Z,19.37
2018-12-05T08:30:38.400Z,28.77
2018-12-05T08:33:06.943Z,21.70
2018-12-05T08:35:38.621Z,13.03
2018-12-05T08:38:07.173Z,16.80
2018-12-05T08:40:35.701Z,14.75
2018-12-05T08:43:04.254Z,16.00
2018-12-05T08:45:32.798Z,23.40
2018-12-05T08:48:01.346Z,19.48
2018-12-05T08:50:29.919Z,14.05
2018-12-05T08:52:58.505Z,17.05
2018-12-05T08:55:27.059Z,24.55
2018-12-05T08:57:55.585Z,29.82
2018-12-05T09:00:24.137Z,30.10
2018-12-05T09:02:52.860Z,32.73
2018-12-05T09:05:21.524Z,33.53
2018-12-05T09:07:50.083Z,27.40
2018-12-05T09:10:19.376Z,31.15
2018-12-05T09:12:47.989Z,34.18
2018-12-05T09:15:16.657Z,24.72
2018-12-05T09:17:45.263Z,28.02
2018-12-05T09:20:14.004Z,21.55
2018-12-05T09:22:42.618Z,21.10
2018-12-05T09:25:11.209Z,19.35
2018-12-05T09:27:39.872Z,15.63
2018-12-05T09:30:08.469Z,30.43
2018-12-05T09:32:37.082Z,19.95
2018-12-05T09:35:06.471Z,21.52
2018-12-05T09:37:35.046Z,21.77
2018-12-05T09:40:04.003Z,23.05
2018-12-05T09:42:32.547Z,37.63
2018-12-05T09:45:01.228Z,19.07
2018-12-05T09:47:29.827Z,16.37
2018-12-05T09:49:58.410Z,16.80
2018-12-05T09:52:27.035Z,23.45
2018-12-05T09:54:55.629Z,20.77
2018-12-05T09:57:24.199Z,23.80
2018-12-05T09:59:52.767Z,20.17
2018-12-05T10:02:21.338Z,18.77
2018-12-05T10:04:49.926Z,13.15
2018-12-05T10:07:18.503Z,25.00
2018-12-05T10:09:47.080Z,21.93
2018-12-05T10:12:15.627Z,17.45
2018-12-05T10:14:44.187Z,23.55
2018-12-05T10:17:12.774Z,12.50
2018-12-05T10:19:41.350Z,15.53
2018-12-05T10:22:09.947Z,21.87
2018-12-05T10:24:38.535Z,18.90
2018-12-05T10:27:07.129Z,16.60
2018-12-05T10:29:35.685Z,23.75
2018-12-05T10:32:05.179Z,19.70
2018-12-05T10:34:33.969Z,24.90
2018-12-05T10:37:02.520Z,20.60
2018-12-05T10:39:31.138Z,14.47
2018-12-05T10:41:59.751Z,23.32
2018-12-05T10:44:28.329Z,22.70
2018-12-05T10:46:56.949Z,18.62
2018-12-05T10:49:25.682Z,22.45
2018-12-05T10:51:54.268Z,31.90
2018-12-05T10:54:22.877Z,14.90
2018-12-05T10:56:51.603Z,15.18
2018-12-05T10:59:20.157Z,18.17
2018-12-05T11:01:54.076Z,12.23
2018-12-05T11:04:30.669Z,15.43
2018-12-05T11:07:04.395Z,14.60
2018-12-05T11:09:38.115Z,24.95
2018-12-05T11:12:12.378Z,21.52
2018-12-05T11:14:46.154Z,18.35
2018-12-05T11:17:20.015Z,23.32
2018-12-05T11:19:57.077Z,27.22
2018-12-05T11:22:31.151Z,17.20
2018-12-05T11:25:06.217Z,11.05
2018-12-05T11:27:34.890Z,15.25
2018-12-05T11:30:03.571Z,16.10
2018-12-05T11:32:32.225Z,15.93
2018-12-05T11:35:01.433Z,18.15
2018-12-05T11:37:29.962Z,30.08
2018-12-05T11:39:58.572Z,16.93
2018-12-05T11:42:29.677Z,17.00
2018-12-05T11:45:00.300Z,19.15
2018-12-05T11:47:28.867Z,23.10
2018-12-05T11:49:57.438Z,24.07
2018-12-05T11:52:25.957Z,17.57
2018-12-05T11:54:54.855Z,8.48
2018-12-05T11:57:23.453Z,20.35
2018-12-05T11:59:51.975Z,32.53
2018-12-05T12:02:22.480Z,19.67
2018-12-05T12:04:51.130Z,18.42
2018-12-05T12:07:19.751Z,8.43
2018-12-05T12:09:48.407Z,13.38
2018-12-05T12:12:22.103Z,18.55
2018-12-05T12:14:50.783Z,13.48
2018-12-05T12:17:19.350Z,14.30
2018-12-05T12:19:47.870Z,17.17
2018-12-05T12:22:16.400Z,17.10
2018-12-05T12:24:44.956Z,9.18
2018-12-05T12:27:13.507Z,7.47
2018-12-05T12:29:42.029Z,7.47
2018-12-05T12:32:10.570Z,21.52
2018-12-05T12:34:39.111Z,9.35
2018-12-05T12:37:07.632Z,11.00
2018-12-05T12:39:36.180Z,6.92
2018-12-05T12:42:04.860Z,10.00
2018-12-05T12:44:33.421Z,7.80
2018-12-05T12:47:01.943Z,20.57
2018-12-05T12:49:30.494Z,10.53
2018-12-05T12:51:59.023Z,9.95
2018-12-05T12:54:27.642Z,13.35
2018-12-05T12:56:56.158Z,33.98
2018-12-05T12:59:24.689Z,14.80
2018-12-05T13:01:53.250Z,22.87
2018-12-05T13:04:23.906Z,12.60
2018-12-05T13:06:52.468Z,16.17
2018-12-05T13:09:21.025Z,8.18
2018-12-05T13:11:49.630Z,17.27
2018-12-05T13:14:18.168Z,7.58
2018-12-05T13:16:46.762Z,5.75
2018-12-05T13:19:15.320Z,11.60
2018-12-05T13:21:43.859Z,6.33
2018-12-05T13:24:12.411Z,9.10
2018-12-05T13:26:40.977Z,7.92
2018-12-05T13:29:09.542Z,10.43
2018-12-05T13:31:38.120Z,16.97
2018-12-05T13:34:06.689Z,7.05
2018-12-05T13:36:35.216Z,9.50
2018-12-05T13:39:05.345Z,10.82
2018-12-05T13:41:33.905Z,16.23
2018-12-05T13:44:02.930Z,15.08
2018-12-05T13:46:31.601Z,10.70
2018-12-05T13:49:00.183Z,13.10
2018-12-05T13:51:28.733Z,8.50
2018-12-05T13:53:57.240Z,8.65
2018-12-05T13:56:25.801Z,10.50
2018-12-05T13:58:59.493Z,7.62
2018-12-05T14:01:28.121Z,11.00
2018-12-05T14:03:56.662Z,9.55
2018-12-05T14:06:25.189Z,17.55
2018-12-05T14:08:53.733Z,8.20
2018-12-05T14:11:22.271Z,8.45
2018-12-05T14:13:50.853Z,8.90
2018-12-05T14:16:19.389Z,9.35
2018-12-05T14:18:47.945Z,7.90
2018-12-05T14:21:16.485Z,8.33
2018-12-05T14:23:45.001Z,13.78
2018-12-05T14:26:14.587Z,12.80
2018-12-05T14:28:43.163Z,12.07
2018-12-05T14:31:11.699Z,12.60
2018-12-05T14:33:40.216Z,8.73
2018-12-05T14:36:08.891Z,17.77
2018-12-05T14:38:37.463Z,5.35
2018-12-05T14:41:05.971Z,6.80
2018-12-05T14:43:34.516Z,12.25
2018-12-05T14:46:03.088Z,17.42
2018-12-05T14:48:31.670Z,10.58
2018-12-05T14:51:00.260Z,8.70
2018-12-05T14:53:28.856Z,6.12
2018-12-05T14:55:57.439Z,8.63
2018-12-05T14:58:25.997Z,13.03
2018-12-05T15:00:54.614Z,7.67
2018-12-05T15:03:23.165Z,5.97
2018-12-05T15:05:51.687Z,8.10
2018-12-05T15:08:20.245Z,6.92
2018-12-05T15:10:48.976Z,11.90
2018-12-05T15:13:17.485Z,9.28
2018-12-05T15:15:46.048Z,10.55
2018-12-05T15:18:14.604Z,11.50
2018-12-05T15:20:43.149Z,12.13
2018-12-05T15:23:11.696Z,15.32
2018-12-05T15:25:40.250Z,10.55
2018-12-05T15:28:08.797Z,13.75
2018-12-05T15:30:37.716Z,14.93
2018-12-05T15:33:07.268Z,15.83
2018-12-05T15:35:35.977Z,12.93
2018-12-05T15:38:04.570Z,12.88
2018-12-05T15:40:34.251Z,15.63
2018-12-05T15:43:02.890Z,15.23
2018-12-05T15:45:31.533Z,8.40
2018-12-05T15:48:00.074Z,12.45
2018-12-05T15:50:28.604Z,18.25
2018-12-05T15:52:57.219Z,12.03
2018-12-05T15:55:27.435Z,8.33
2018-12-05T15:57:56.152Z,6.97
2018-12-05T16:00:24.728Z,16.45
2018-12-05T16:02:53.300Z,11.00
2018-12-05T16:05:21.845Z,12.05
2018-12-05T16:07:50.464Z,15.18
2018-12-05T16:10:18.995Z,15.08
2018-12-05T16:12:47.537Z,23.32
2018-12-05T16:15:16.084Z,18.50
2018-12-05T16:17:44.726Z,21.65
2018-12-05T16:20:13.295Z,25.00
2018-12-05T16:22:41.862Z,27.05
2018-12-05T16:25:10.409Z,32.03
2018-12-05T16:27:38.982Z,20.75
2018-12-05T16:30:08.471Z,14.80
2018-12-05T16:32:37.009Z,20.45
2018-12-05T16:35:05.793Z,19.10
2018-12-05T16:37:34.489Z,27.73
2018-12-05T16:40:03.200Z,17.30
2018-12-05T16:42:31.765Z,21.00
2018-12-05T16:45:00.310Z,13.50
2018-12-05T16:47:28.890Z,20.97
2018-12-05T16:49:57.462Z,25.75
2018-12-05T16:52:26.016Z,10.65
2018-12-05T16:54:54.903Z,17.62
2018-12-05T16:57:23.419Z,14.63
2018-12-05T16:59:51.970Z,16.55
2018-12-05T17:02:20.571Z,27.95
2018-12-05T17:04:49.234Z,15.80
2018-12-05T17:07:17.833Z,23.70
2018-12-05T17:09:46.416Z,23.45
2018-12-05T17:12:14.977Z,20.00
2018-12-05T17:14:43.568Z,14.65
2018-12-05T17:17:12.205Z,16.17
2018-12-05T17:19:40.774Z,11.90
2018-12-05T17:22:09.326Z,18.48
2018-12-05T17:24:37.857Z,19.57
2018-12-05T17:27:06.486Z,15.55
2018-12-05T17:29:35.046Z,19.85
2018-12-05T17:32:03.638Z,13.45
2018-12-05T17:34:32.172Z,16.45
2018-12-05T17:37:02.598Z,21.82
2018-12-05T17:39:31.148Z,18.15
2018-12-05T17:41:59.674Z,24.10
2018-12-05T17:44:28.204Z,14.53
2018-12-05T17:46:56.759Z,15.40
2018-12-05T17:49:25.328Z,24.72
2018-12-05T17:51:53.880Z,22.87
2018-12-05T17:54:22.411Z,24.72
2018-12-05T17:56:50.935Z,20.43
2018-12-05T17:59:19.459Z,16.25
2018-12-05T18:01:47.978Z,21.55
2018-12-05T18:04:16.504Z,20.95
2018-12-05T18:06:45.035Z,18.65
2018-12-05T18:09:13.616Z,28.25
2018-12-05T18:11:42.260Z,20.85
2018-12-05T18:14:10.821Z,24.45
2018-12-05T18:16:39.325Z,19.70
2018-12-05T18:19:07.967Z,25.02
2018-12-05T18:21:36.485Z,30.50
2018-12-05T18:24:05.143Z,30.30
2018-12-05T18:26:33.686Z,25.12
2018-12-05T18:29:02.261Z,29.92
2018-12-05T18:31:30.813Z,22.87
2018-12-05T18:33:59.336Z,24.60
2018-12-05T18:36:27.878Z,31.55
2018-12-05T18:38:56.417Z,24.67
2018-12-05T18:41:25.077Z,21.20
2018-12-05T18:43:53.638Z,34.78
2018-12-05T18:46:22.194Z,21.33
2018-12-05T18:48:50.706Z,25.10
2018-12-05T18:51:19.243Z,30.90
2018-12-05T18:53:47.782Z,25.88
2018-12-05T18:56:16.327Z,33.98
2018-12-05T18:58:44.871Z,29.10
2018-12-05T19:01:13.434Z,37.23
2018-12-05T19:03:41.971Z,27.13
2018-12-05T19:06:11.396Z,36.23
2018-12-05T19:08:39.904Z,29.00
2018-12-05T19:11:08.436Z,76.20
2018-12-05T19:13:41.154Z,36.40
2018-12-05T19:16:09.817Z,38.40
2018-12-05T19:18:38.367Z,31.87
2018-12-05T19:21:06.899Z,32.30
2018-12-05T19:23:35.435Z,36.50
2018-12-05T19:26:04.096Z,30.82
2018-12-05T19:28:32.665Z,37.45
2018-12-05T19:31:02.902Z,32.13
2018-12-05T19:33:31.471Z,34.15
2018-12-05T19:35:59.995Z,43.35
2018-12-05T19:38:28.556Z,36.70
2018-12-05T19:40:57.071Z,43.02
2018-12-05T19:43:25.584Z,31.90
2018-12-05T19:45:54.116Z,29.63
2018-12-05T19:48:22.674Z,42.85
2018-12-05T19:50:51.295Z,36.90
2018-12-05T19:53:20.012Z,35.83
2018-12-05T19:55:48.557Z,30.40
2018-12-05T19:58:17.078Z,47.62
2018-12-05T20:00:45.593Z,27.05
2018-12-05T20:03:14.162Z,27.22
2018-12-05T20:05:42.687Z,35.68
2018-12-05T20:08:11.375Z,28.62
2018-12-05T20:10:39.928Z,27.42
2018-12-05T20:13:08.530Z,29.55
2018-12-05T20:15:37.122Z,29.77
2018-12-05T20:18:05.776Z,23.87
2018-12-05T20:20:34.359Z,17.12
2018-12-05T20:23:02.975Z,28.62
2018-12-05T20:25:31.540Z,41.35
2018-12-05T20:28:00.132Z,38.63
2018-12-05T20:30:28.706Z,23.80
2018-12-05T20:32:58.389Z,23.12
2018-12-05T20:35:27.599Z,28.92
2018-12-05T20:37:56.519Z,21.30
2018-12-05T20:40:25.095Z,25.90
2018-12-05T20:42:53.749Z,25.40
2018-12-05T20:45:22.287Z,25.02
2018-12-05T20:47:50.878Z,19.90
2018-12-05T20:50:19.423Z,21.68
2018-12-05T20:52:47.969Z,22.40
2018-12-05T20:55:16.554Z,25.30
2018-12-05T20:57:45.074Z,23.00
2018-12-05T21:00:13.716Z,24.37
2018-12-05T21:02:42.203Z,16.55
2018-12-05T21:05:10.751Z,16.65
2018-12-05T21:07:39.278Z,20.23
2018-12-05T21:10:08.048Z,18.42
2018-12-05T21:12:36.762Z,23.77
2018-12-05T21:15:05.836Z,27.75
2018-12-05T21:17:34.365Z,21.75
2018-12-05T21:20:02.949Z,21.23
2018-12-05T21:22:31.495Z,18.85
2018-12-05T21:25:00.043Z,15.58
2018-12-05T21:27:28.618Z,32.17
2018-12-05T21:29:57.164Z,19.70
2018-12-05T21:32:25.715Z,20.68
2018-12-05T21:34:54.225Z,24.10
2018-12-05T21:37:22.740Z,21.60
2018-12-05T21:39:51.268Z,22.73
2018-12-05T21:42:20.937Z,19.20
2018-12-05T21:44:49.474Z,28.80
2018-12-05T21:47:18.027Z,17.92
2018-12-05T21:49:46.575Z,31.60
2018-12-05T21:52:15.102Z,18.85
2018-12-05T21:54:43.600Z,23.83
2018-12-05T21:57:12.118Z,26.48
2018-12-05T21:59:43.828Z,35.60
2018-12-05T22:02:12.514Z,27.20
2018-12-05T22:04:41.041Z,20.92
2018-12-05T22:07:11.560Z,31.23
2018-12-05T22:09:40.107Z,26.62
2018-12-05T22:12:08.709Z,23.75
2018-12-05T22:14:38.593Z,24.05
2018-12-05T22:17:09.723Z,21.20
2018-12-05T22:19:38.300Z,22.98
2018-12-05T22:22:06.833Z,18.60
2018-12-05T22:24:35.360Z,28.92
2018-12-05T22:27:03.918Z,25.08
2018-12-05T22:29:32.518Z,21.50
2018-12-05T22:32:01.076Z,27.15
2018-12-05T22:34:29.593Z,17.80
2018-12-05T22:36:58.094Z,26.52
2018-12-05T22:39:26.626Z,24.23
2018-12-05T22:41:55.119Z,23.87
2018-12-05T22:44:23.664Z,19.77
2018-12-05T22:46:52.283Z,26.20
2018-12-05T22:49:20.789Z,19.80
2018-12-05T22:51:49.307Z,20.43
2018-12-05T22:54:17.812Z,18.37
2018-12-05T22:56:56.393Z,20.52
2018-12-05T22:59:24.961Z,15.68
2018-12-05T23:01:53.689Z,16.48
2018-12-05T23:04:22.274Z,20.37
2018-12-05T23:06:50.885Z,20.25
2018-12-05T23:09:19.495Z,23.07
2018-12-05T23:11:48.091Z,19.85
2018-12-05T23:14:16.664Z,20.05
2018-12-05T23:16:45.252Z,14.10
2018-12-05T23:19:13.872Z,22.77
2018-12-05T23:21:42.426Z,18.48
2018-12-05T23:24:14.138Z,27.40
2018-12-05T23:26:42.733Z,27.42
2018-12-05T23:29:11.368Z,20.25
2018-12-05T23:31:39.910Z,19.90
2018-12-05T23:34:08.467Z,20.57
2018-12-05T23:36:37.019Z,12.95
2018-12-05T23:39:08.060Z,20.05
2018-12-05T23:41:36.773Z,15.70
2018-12-05T23:44:05.497Z,23.07
2018-12-05T23:46:34.054Z,16.17
2018-12-05T23:49:02.587Z,19.80
2018-12-05T23:51:31.137Z,14.20
2018-12-05T23:53:59.691Z,15.20
2018-12-05T23:56:28.381Z,23.20
2018-12-05T23:58:56.954Z,16.32
